createdAt,value
2023-05-10T00:01:43.123Z,7.40
2023-05-10T00:04:15.730Z,11.90
2023-05-10T00:06:56.384Z,7.03
2023-05-10T00:09:34.830Z,9.82
2023-05-10T00:12:15.899Z,8.27
2023-05-10T00:14:53.340Z,9.75
2023-05-10T00:17:36.819Z,11.95
2023-05-10T00:20:17.416Z,6.80
2023-05-10T00:23:06.850Z,8.75
2023-05-10T00:25:49.720Z,7.47
2023-05-10T00:28:38.364Z,12.20
2023-05-10T00:31:19.030Z,8.23
2023-05-10T00:34:00.200Z,9.85
2023-05-10T00:36:37.946Z,14.52
2023-05-10T00:39:28.467Z,10.25
2023-05-10T00:42:12.223Z,8.90
2023-05-10T00:44:58.624Z,9.50
2023-05-10T00:47:32.059Z,8.68
2023-05-10T00:50:25.012Z,7.22
2023-05-10T00:53:05.057Z,10.65
2023-05-10T00:55:43.298Z,9.68
2023-05-10T00:58:18.697Z,11.70
2023-05-10T01:01:05.200Z,10.10
2023-05-10T01:03:49.263Z,6.95
2023-05-10T01:06:35.870Z,8.63
2023-05-10T01:09:19.077Z,8.85
2023-05-10T01:11:50.224Z,9.85
2023-05-10T01:14:37.328Z,10.93
2023-05-10T01:17:22.197Z,9.60
2023-05-10T01:20:03.085Z,13.70
2023-05-10T01:23:00.841Z,8.77
2023-05-10T01:25:45.226Z,7.90
2023-05-10T01:28:49.864Z,8.52
2023-05-10T01:31:36.954Z,7.68
2023-05-10T01:34:14.069Z,9.13
2023-05-10T01:36:56.577Z,10.82
2023-05-10T01:39:49.968Z,9.20
2023-05-10T01:42:39.918Z,8.18
2023-05-10T01:45:19.347Z,7.25
2023-05-10T01:48:33.007Z,9.73
2023-05-10T01:51:11.039Z,8.75
2023-05-10T01:54:00.040Z,8.88
2023-05-10T01:56:46.051Z,8.00
2023-05-10T01:59:26.867Z,8.55
2023-05-10T02:02:08.033Z,8.82
2023-05-10T02:04:51.765Z,9.65
2023-05-10T02:07:40.046Z,8.93
2023-05-10T02:10:20.698Z,8.93
2023-05-10T02:13:05.287Z,9.82
2023-05-10T02:15:39.804Z,10.75
2023-05-10T02:18:19.623Z,9.50
2023-05-10T02:21:01.807Z,11.23
2023-05-10T02:23:40.673Z,10.20
2023-05-10T02:26:25.604Z,8.77
2023-05-10T02:29:04.977Z,8.77
2023-05-10T02:31:39.868Z,9.43
2023-05-10T02:34:22.996Z,10.30
2023-05-10T02:36:57.241Z,9.88
2023-05-10T02:39:42.730Z,12.27
2023-05-10T02:42:38.692Z,12.88
2023-05-10T02:45:29.788Z,11.68
2023-05-10T02:48:06.048Z,11.00
2023-05-10T02:50:55.142Z,10.90
2023-05-10T02:53:45.284Z,12.80
2023-05-10T02:56:40.723Z,13.68
2023-05-10T02:59:22.198Z,11.88
2023-05-10T03:02:02.790Z,13.20
2023-05-10T03:04:46.292Z,17.52
2023-05-10T03:07:27.003Z,13.25
2023-05-10T03:10:17.433Z,13.40
2023-05-10T03:13:20.942Z,16.63
2023-05-10T03:16:36.856Z,21.02
2023-05-10T03:19:24.695Z,23.88
2023-05-10T03:22:16.618Z,25.60
2023-05-10T03:24:55.954Z,27.25
2023-05-10T03:27:48.683Z,27.67
2023-05-10T03:30:26.658Z,26.52
2023-05-10T03:33:08.041Z,25.88
2023-05-10T03:35:52.685Z,23.08
2023-05-10T03:38:30.519Z,20.67
2023-05-10T03:41:13.776Z,19.25
2023-05-10T03:43:52.886Z,19.30
2023-05-10T03:46:30.962Z,20.13
2023-05-10T03:49:13.451Z,22.23
2023-05-10T03:51:59.169Z,20.85
2023-05-10T03:54:37.442Z,18.63
2023-05-10T03:57:21.101Z,17.23
2023-05-10T04:00:05.915Z,15.88
2023-05-10T04:02:55.146Z,17.33
2023-05-10T04:05:39.346Z,15.32
2023-05-10T04:08:26.037Z,19.00
2023-05-10T04:11:17.972Z,14.35
2023-05-10T04:13:55.456Z,14.65
2023-05-10T04:16:39.218Z,13.48
2023-05-10T04:19:21.465Z,9.23
2023-05-10T04:22:02.887Z,14.40
2023-05-10T04:24:48.222Z,12.68
2023-05-10T04:27:31.461Z,13.32
2023-05-10T04:30:12.283Z,12.35
2023-05-10T04:32:55.560Z,15.65
2023-05-10T04:35:47.267Z,12.85
2023-05-10T04:38:36.078Z,15.32
2023-05-10T04:41:17.051Z,13.73
2023-05-10T04:43:53.214Z,13.93
2023-05-10T04:46:43.626Z,12.98
2023-05-10T04:49:30.563Z,12.85
2023-05-10T04:52:32.100Z,14.98
2023-05-10T04:55:35.474Z,10.52
2023-05-10T04:58:28.130Z,20.63
2023-05-10T05:01:11.615Z,16.90
2023-05-10T05:03:58.432Z,15.25
2023-05-10T05:09:47.061Z,12.20
2023-05-10T05:12:25.236Z,11.82
2023-05-10T05:15:11.527Z,12.90
2023-05-10T05:17:50.099Z,14.75
2023-05-10T05:20:23.451Z,16.70
2023-05-10T05:23:08.063Z,11.73
2023-05-10T05:25:51.862Z,11.18
2023-05-10T05:28:32.417Z,12.57
2023-05-10T05:31:19.150Z,13.13
2023-05-10T05:33:53.855Z,11.48
2023-05-10T05:36:39.726Z,14.80
2023-05-10T05:39:23.307Z,15.60
2023-05-10T05:42:04.909Z,12.90
2023-05-10T05:44:50.796Z,15.20
2023-05-10T05:47:31.242Z,13.82
2023-05-10T05:50:23.724Z,13.38
2023-05-10T05:53:10.596Z,12.00
2023-05-10T05:56:09.179Z,11.13
2023-05-10T05:58:49.770Z,10.35
2023-05-10T06:01:29.966Z,10.77
2023-05-10T06:04:14.873Z,12.20
2023-05-10T06:06:59.298Z,11.27
2023-05-10T06:09:34.459Z,14.43
2023-05-10T06:12:20.838Z,11.02
2023-05-10T06:15:04.398Z,13.10
2023-05-10T06:17:47.718Z,12.18
2023-05-10T06:20:36.727Z,14.05
2023-05-10T06:23:26.204Z,10.23
2023-05-10T06:26:15.832Z,10.20
2023-05-10T06:28:50.422Z,11.40
2023-05-10T06:31:39.683Z,8.65
2023-05-10T06:34:21.892Z,10.27
2023-05-10T06:37:07.538Z,8.40
2023-05-10T06:39:48.848Z,8.27
2023-05-10T06:42:37.756Z,7.63
2023-05-10T06:45:19.172Z,7.55
2023-05-10T06:48:07.828Z,7.07
2023-05-10T06:51:04.169Z,6.60
2023-05-10T06:53:49.935Z,9.83
2023-05-10T06:56:38.634Z,9.63
2023-05-10T07:02:12.005Z,5.97
2023-05-10T07:04:52.914Z,7.20
2023-05-10T07:07:31.456Z,6.00
2023-05-10T07:10:12.245Z,6.57
2023-05-10T07:12:53.737Z,10.10
2023-05-10T07:15:32.840Z,8.13
2023-05-10T07:18:08.926Z,9.73
2023-05-10T07:20:53.803Z,7.57
2023-05-10T07:23:44.937Z,8.18
2023-05-10T07:26:28.924Z,13.38
2023-05-10T07:29:16.969Z,9.38
2023-05-10T07:32:03.104Z,5.13
2023-05-10T07:34:47.906Z,9.48
2023-05-10T07:37:37.832Z,5.97
2023-05-10T07:40:24.801Z,6.07
2023-05-10T07:43:09.919Z,5.63
2023-05-10T07:45:50.113Z,6.22
2023-05-10T07:48:30.871Z,6.07
2023-05-10T07:51:17.595Z,9.02
2023-05-10T07:54:09.714Z,5.85
2023-05-10T07:56:58.966Z,9.13
2023-05-10T07:59:48.928Z,15.80
2023-05-10T08:02:32.185Z,6.15
2023-05-10T08:05:23.658Z,8.68
2023-05-10T08:08:04.512Z,7.97
2023-05-10T08:10:47.716Z,7.18
2023-05-10T08:13:36.044Z,11.05
2023-05-10T08:16:20.788Z,9.75
2023-05-10T08:19:08.074Z,8.40
2023-05-10T08:21:51.883Z,7.20
2023-05-10T08:24:40.563Z,9.52
2023-05-10T08:27:24.843Z,7.63
2023-05-10T08:30:05.862Z,9.20
2023-05-10T08:32:52.554Z,8.85
2023-05-10T08:35:42.420Z,8.23
2023-05-10T08:38:20.724Z,8.07
2023-05-10T08:41:00.685Z,13.82
2023-05-10T08:43:47.208Z,8.43
2023-05-10T08:46:39.786Z,16.20
2023-05-10T08:49:21.957Z,7.38
2023-05-10T08:52:10.198Z,7.30
2023-05-10T08:54:48.471Z,6.72
2023-05-10T08:57:33.319Z,8.20
2023-05-10T09:00:25.880Z,7.38
2023-05-10T09:03:14.181Z,9.45
2023-05-10T09:06:06.907Z,7.35
2023-05-10T09:09:00.920Z,7.70
2023-05-10T09:11:42.206Z,5.57
2023-05-10T09:14:43.735Z,10.52
2023-05-10T09:17:37.702Z,6.82
2023-05-10T09:20:15.883Z,5.70
2023-05-10T09:23:13.209Z,7.72
2023-05-10T09:26:20.310Z,6.82
2023-05-10T09:29:29.495Z,10.48
2023-05-10T09:32:13.890Z,14.45
2023-05-10T09:35:10.266Z,11.18
2023-05-10T09:38:01.915Z,7.03
2023-05-10T09:40:40.885Z,9.02
2023-05-10T09:43:38.382Z,15.32
2023-05-10T09:46:27.836Z,6.45
2023-05-10T09:49:09.455Z,11.18
2023-05-10T09:52:11.673Z,8.50
2023-05-10T09:55:09.856Z,6.63
2023-05-10T09:58:18.353Z,5.22
2023-05-10T10:00:57.955Z,14.80
2023-05-10T10:03:42.627Z,6.80
2023-05-10T10:06:32.784Z,6.55
2023-05-10T10:09:22.222Z,5.18
2023-05-10T10:12:10.112Z,7.00
2023-05-10T10:15:03.118Z,5.22
2023-05-10T19:00:39.456Z,4.70
2023-05-10T19:03:42.609Z,3.45
2023-05-10T19:06:28.576Z,3.22
2023-05-10T19:09:20.273Z,5.68
2023-05-10T19:12:08.259Z,2.60
2023-05-10T19:14:50.352Z,4.55
2023-05-10T19:17:36.862Z,5.15
2023-05-10T19:20:30.824Z,3.28
2023-05-10T19:23:26.962Z,4.80
2023-05-10T19:26:16.096Z,5.65
2023-05-10T19:28:52.643Z,4.40
2023-05-10T19:31:36.542Z,3.08
2023-05-10T19:34:32.091Z,9.90
2023-05-10T19:37:18.134Z,3.60
2023-05-10T19:40:23.215Z,5.20
2023-05-10T19:43:04.991Z,5.82
2023-05-10T19:45:47.453Z,3.95
2023-05-10T19:48:40.602Z,3.42
2023-05-10T19:51:14.047Z,4.57
2023-05-10T19:53:57.737Z,4.18
2023-05-10T19:56:33.812Z,7.07
2023-05-10T19:59:18.244Z,4.53
2023-05-10T20:01:53.176Z,4.35
2023-05-10T20:04:36.207Z,5.10
2023-05-10T20:07:22.316Z,7.00
2023-05-10T20:10:10.789Z,4.68
2023-05-10T20:12:52.492Z,8.02
2023-05-10T20:15:42.815Z,5.65
2023-05-10T20:18:41.336Z,5.85
2023-05-10T20:21:24.090Z,4.03
2023-05-10T20:24:09.163Z,6.20
2023-05-10T20:26:59.857Z,3.55
2023-05-10T20:29:43.790Z,8.45
2023-05-10T20:32:30.617Z,3.88
2023-05-10T20:35:16.807Z,6.75
2023-05-10T20:38:02.230Z,3.58
2023-05-10T20:40:46.449Z,3.97
2023-05-10T20:43:36.601Z,4.43
2023-05-10T20:46:13.118Z,3.05
2023-05-10T20:49:05.010Z,3.88
2023-05-10T20:51:49.426Z,3.38
2023-05-10T20:54:35.598Z,4.28
2023-05-10T20:59:57.800Z,5.45
2023-05-10T21:02:43.796Z,4.45
2023-05-10T21:05:27.424Z,3.97
2023-05-10T21:08:08.592Z,5.32
2023-05-10T21:10:45.763Z,4.85
2023-05-10T21:13:26.092Z,3.80
2023-05-10T21:16:09.350Z,4.68
2023-05-10T21:18:53.256Z,3.75
2023-05-10T21:21:36.323Z,5.82
2023-05-10T21:24:19.266Z,4.15
2023-05-10T21:27:01.272Z,5.82
2023-05-10T21:29:47.110Z,10.30
2023-05-10T21:32:33.296Z,3.45
2023-05-10T21:36:05.620Z,5.57
2023-05-10T21:38:46.638Z,3.65
2023-05-10T21:41:29.874Z,3.10
2023-05-10T21:44:16.752Z,5.65
2023-05-10T21:47:07.678Z,5.55
2023-05-10T21:49:50.635Z,4.57
2023-05-10T21:52:37.637Z,3.63
2023-05-10T21:55:23.986Z,5.45
2023-05-10T21:58:05.029Z,3.47
2023-05-10T22:00:44.019Z,3.22
2023-05-10T22:03:22.916Z,4.75
2023-05-10T22:09:09.197Z,3.30
2023-05-10T22:11:52.431Z,3.90
2023-05-10T22:14:30.534Z,4.65
2023-05-10T22:17:28.172Z,3.88
2023-05-10T22:20:12.094Z,4.15
2023-05-10T22:22:57.781Z,3.85
2023-05-10T22:25:40.524Z,5.43
2023-05-10T22:28:23.766Z,7.90
2023-05-10T22:31:15.353Z,4.28
2023-05-10T22:34:02.079Z,4.28
2023-05-10T22:36:50.552Z,3.20
2023-05-10T22:39:33.844Z,3.40
2023-05-10T22:42:11.723Z,3.28
2023-05-10T22:44:57.281Z,4.68
2023-05-10T22:47:43.428Z,4.18
2023-05-10T22:50:26.914Z,5.57
2023-05-10T22:53:07.402Z,5.57
2023-05-10T22:55:50.122Z,3.90
2023-05-10T22:58:20.300Z,7.57
2023-05-10T23:00:58.246Z,3.35
2023-05-10T23:03:50.576Z,3.90
2023-05-10T23:06:28.242Z,5.75
2023-05-10T23:09:11.776Z,4.15
2023-05-10T23:11:55.397Z,4.53
2023-05-10T23:14:36.043Z,4.22
2023-05-10T23:17:14.534Z,7.32
2023-05-10T23:19:54.422Z,4.10
2023-05-10T23:22:35.229Z,4.68
2023-05-10T23:25:19.197Z,5.40
2023-05-10T23:27:59.453Z,4.78
2023-05-10T23:30:43.225Z,5.88
2023-05-10T23:33:27.323Z,4.85
2023-05-10T23:36:22.000Z,6.35
2023-05-10T23:39:28.526Z,6.40
2023-05-10T23:42:11.731Z,4.32
2023-05-10T23:44:50.613Z,4.18
2023-05-10T23:47:52.600Z,4.40
2023-05-10T23:50:42.546Z,4.55
2023-05-10T23:53:23.950Z,4.97
2023-05-10T23:56:09.217Z,3.83
2023-05-10T23:58:51.021Z,8.93
